Terminal Aerodrome Forecast
Issued by NWS Des Moines, IA

Home | Current Version | Previous Version | Text Only | Print | Product List | Glossary On
Versions: 1 2 3 4 5 6 7 8 9 10 11 12 13 14 15 16 17 18 19 20 21 22 23 24 25 26 27 28 29 30 31 32 33 34 35 36 37 38
000
FTUS43 KDMX 201740
TAFALO
TAF
KALO 201740Z 2018/2118 17007KT 3SM BR OVC007
     FM210500 15008KT 2SM -FZDZ BR OVC005
     FM211200 16009KT 3SM -DZ BR OVC006
     FM211600 17012KT 5SM BR OVC009=

USA.gov is the U.S. government's official web portal to all federal, state and local government web resources and services.